Bemidji, MN

4:15 PM CST on January 30, 2015 (GMT -0600)
Bemidji State University - Dept of Geography | Change Station
CLOSE
Current Station
Personal Weather Station
Location: Bemidji, MN
Elevation: 1352 ft
Nearby Weather Stations

Elev 1352 ft 47.48 °N, 94.87 °W | Updated 32 seconds ago

Overcast
Overcast
20.2 °F
Feels Like 11 °F
N
7.0
Wind Variable Wind from SSE
Gusts 7.0 mph

Today
High -- | Low -- °F
--% Chance of Precip.
Yesterday
High -- | Low -- °F
Precip. -- in
7:48 AM 5:17 PM
Waxing Gibbous, 85% visible
Pressure 30.13 in
Visibility 7.0 miles
Clouds Overcast 8000 ft
Windchill 11 °F
Dew Point 14 °F
Humidity 77%
Rainfall 0.00 in
Snow Depth Not available.
UV 0.0 out of 12
Pollen .10 out of 12
Air Quality Not available.
Flu Activity Not available.
METAR KBJI 302153Z AUTO 17007KT 7SM OVC080 M07/M11 A3013 RMK AO2 T10701107

More Conditions Fewer Conditions

Pressure 30.13 in
Visibility 7.0 miles
Clouds Overcast 8000 ft
Windchill 11 °F
Dew Point 14 °F
Humidity 77%
Rainfall 0.00 in
Snow Depth Not available.
UV 0.0 out of 12
Pollen .10 out of 12
Air Quality Not available.
Flu Activity Not available.
METAR KBJI 302153Z AUTO 17007KT 7SM OVC080 M07/M11 A3013 RMK AO2 T10701107

More Conditions Fewer Conditions

10-Day Weather Forecast

Almanac

Astronomy

Jan. 30, 2015 Rise Set
Actual Time
Civil Twilight
Nautical Twilight
Astronomical Twilight
Moon
Length of Visible Light
Length of Day
Tomorrow will be .
, % of the Moon is Illuminated

Today's Extremes

State Highs State Lows

Community

WunderPhotos

Upload Photos

1,791,904 photos uploaded!

WunderBlogs® & News

Nearby

Air Quality

  Air Quality AQ Index Pollutant
Not available.

Snow Depth

Station Depth Elevation

Earthquake Activity

City Distance Mag. Time & Date
Minimum magnitude displayed is 2.5.

Coastal Water Temperatures

Place Temperature

Nearby Weather Stations